Domov               UVHVVR             MKGP            O straneh              
ZDRAVSTVENO VARSTVO RASTLIN
  MREŽA AGROMET. POSTAJ
 ► PROGNOSTIČNA OBVESTILA
AGROMETEOROLOŠKI PODATKI -
ARSO
OBVLADOVANJE TVEGANJ ZARADI
NEUGODNIH VREMENSKIH RAZMER
  ► NARAVNE NESREČE
  ► SUŠA/MOČA
  ► NAMAKANJE
  ► ŽLED (gozdarstvo)
KARTOGRAFSKI PRIKAZI
SPLETNE POVEZAVE
PROJEKTI IN PUBLIKACIJE

AGROMETEOROLOŠKA MREŽA: VREMENSKE POSTAJE IN FENOLOŠKA OPAZOVANJA

Pregled podatkov za lokacijo Vipolže, meteorološka postaja 44544

Pregled senzorjev na lokaciji

ID Ime Zadnja
vrednost
Datum
zadnje
spremembe
Tip
senzorja
3083 Temperatura 2 m (°C) 5,72 °C 16.12.2017 19:00 50YA
3084 Relativna vlaga 2 m (% RH) 63,1 % RH 16.12.2017 19:00 50YA
3085 Omočenost lista (U) 0 U 16.12.2017 19:00 A730WET
3086 Padavine (mm) 0 mm 16.12.2017 19:00 Rain-O-Matic
4029 Hitrost vetra (km/h) 3,06 km/h 16.12.2017 19:00 Generic 200 km/h
4030 Smer vetra (°) 105,64 ° 16.12.2017 19:00 Generic 0 - 360

Pregled podatkov zadnjih 24 ur

Zap.
št.
Datum in čas Vipolže
Hitrost
vetra
Omočenost
lista
Padavine Relativna
vlaga
2
m
Smer
vetra
Temperatura
2
m
0 16.12.2017 19:00 3,06 0 0 63,1 105,64 5,72
1 16.12.2017 18:30 4,08 0 0 63,88 80,18 5,72
2 16.12.2017 18:00 5,64 0 0 64,39 77 5,84
3 16.12.2017 17:30 3,91 0 0 65,51 107,72 5,92
4 16.12.2017 17:00 0,48 0 0 67,93 95,97 5,59
5 16.12.2017 16:30 4,84 0 0 64,47 71,59 6,7
6 16.12.2017 16:00 7,36 0 0 61,78 78,67 7,51
7 16.12.2017 15:30 6,39 0 0 60,22 94,69 8,71
8 16.12.2017 15:00 1,62 0 0 60,58 82,89 9,99
9 16.12.2017 14:30 0,58 0 0 59,79 239,45 10,82
10 16.12.2017 14:00 0,6 0 0 59,61 258,98 10,61
11 16.12.2017 13:30 1,36 0 0 61,34 239,63 10,2
12 16.12.2017 13:00 2,63 0 0 61,32 120,95 9,82
13 16.12.2017 12:30 2,08 0 0 65,69 114,99 8,85
14 16.12.2017 12:00 0,58 0 0 73,11 92,73 7,95
15 16.12.2017 11:30 0,05 0 0 78,53 61,65 7,12
16 16.12.2017 11:00 0,22 0 0 83,11 60,14 6,7
17 16.12.2017 10:30 1,35 0 0 85,75 24,57 6,25
18 16.12.2017 10:00 0,55 1 0 87,79 46,71 5,63
19 16.12.2017 09:30 0,15 1 0 94,16 57,54 5,12
20 16.12.2017 09:00 1,33 1 0 95,75 61,94 4,64
21 16.12.2017 08:30 1,08 2 0 96,54 85,4 4,28
22 16.12.2017 08:00 0,16 2 0 95,95 63,57 4,23
23 16.12.2017 07:30 1,45 3 0 96,83 78,81 4,24
24 16.12.2017 07:00 0,91 3 0 97,18 78,28 4,21
25 16.12.2017 06:30 0,08 2 0,2 96,13 245,72 4,26
26 16.12.2017 06:00 0 3 0,2 93,48 69,61 4,42
27 16.12.2017 05:30 1,15 6 0 89,45 69,52 4,79
28 16.12.2017 05:00 5,41 4 0 89,29 19,74 4,84
29 16.12.2017 04:30 3,16 2 0 92,34 10,22 4,5
30 16.12.2017 04:00 0,31 1 0 95,98 62,22 4,13
31 16.12.2017 03:30 0 1 0 94,34 96,95 4,25
32 16.12.2017 03:00 0,19 1 0 91,13 96,68 4,52
33 16.12.2017 02:30 1,59 1 0 87,78 64,81 4,86
34 16.12.2017 02:00 0,75 2 0 88,93 95,92 4,79
35 16.12.2017 01:30 1,75 2 0 87,88 60,6 4,9
36 16.12.2017 01:00 1,61 2 0,2 87,59 24,87 5
37 16.12.2017 00:30 3,65 2 0,4 88,8 72,91 4,89
38 16.12.2017 00:00 9,36 2 1 89,5 82,9 5,09
39 15.12.2017 23:30 9 2 1,8 94,25 91,27 5,02
40 15.12.2017 23:00 11,81 3 1 88,09 100,24 5,32
41 15.12.2017 22:30 13,5 3 1,6 91,07 81,96 5,92
42 15.12.2017 22:00 7,83 10 2,8 96,25 86,51 7,31
43 15.12.2017 21:30 10 0 99,66 158,17 7,58
44 15.12.2017 21:00 0,27 7 0 99,67 53,39 7,32
45 15.12.2017 20:30 7 0 99,13 54,36 7,23
46 15.12.2017 20:00 6 0 98,68 54,36 7,55
© 2011 Ministrstvo za kmetijstvo, gozdarstvo in prehrano. Vse pravice pridržane.